Little Indian, Illinois
Current Conditions -  °F | °C
As of 5:35 PM on Sunday 21 Dec 2014 (Local Time) from KIJX Reporting Station
Overcast Overcast  
Wind Chill: 34°   Ceiling: 4400
Heat Index: 40°   Visibility: 10mi
Dew Point: 33°   Wind: 9mph
Humidity: 77%   Direction: 140°SE
Pressure: 30"   Gusts: NA
Location:  39.9268°N, 90.2187°W
Report Text: KIJX 212335Z AUTO 14008KT 10SM OVC044 05/01 A3000 RMK AO2 T00450007
Loading
Personal Weather Stations






























Interactive Weather Map New forecast layout! Learn more

10-Day Weather Forecast

Advertisements
Track Severe Weather on mobile